MDA191 RCSS-RCQC
Flight info
| Callsign | MDA191 |
|---|---|
| Flight time | 0h 41m |
| Altitude | 11000 |
| Route | HLG1C HLG A1 SWORD DCT MASON DCT SEGMA DCT ARBOK |
| Aircraft | E190/M-SDE3GILORVW/S |
Departure
| Time | 2026-04-19 07:13 |
|---|---|
| Airport | Taipei Songshan International Airport (RCSS) |
Arrival
| Time | 2026-04-19 07:54 |
|---|---|
| Airport | Penghu Magong Airport (RCQC) |
| Time | Latitude | Longitude | Altitude | Speed | Heading |
|---|---|---|---|---|---|
| 2026-04-19 06:59 | 25.06482 | 121.55049 | 26 ft | 0 kts | 178° |
| 2026-04-19 07:03 | 25.06504 | 121.55048 | 29 ft | 4 kts | 178° |
| 2026-04-19 07:03 | 25.06531 | 121.55047 | 28 ft | 4 kts | 178° |
| 2026-04-19 07:03 | 25.06557 | 121.55046 | 27 ft | 4 kts | 186° |
| 2026-04-19 07:03 | 25.06571 | 121.55057 | 31 ft | 4 kts | 265° |
| 2026-04-19 07:04 | 25.06572 | 121.55078 | 31 ft | 2 kts | 268° |
| 2026-04-19 07:04 | 25.06572 | 121.55080 | 31 ft | 0 kts | 268° |
| 2026-04-19 07:07 | 25.06572 | 121.55079 | 31 ft | 1 kts | 268° |
| 2026-04-19 07:07 | 25.06572 | 121.55073 | 29 ft | 1 kts | 268° |
| 2026-04-19 07:07 | 25.06571 | 121.55043 | 30 ft | 8 kts | 268° |
| 2026-04-19 07:08 | 25.06570 | 121.55022 | 28 ft | 2 kts | 268° |
| 2026-04-19 07:08 | 25.06569 | 121.54998 | 26 ft | 5 kts | 268° |
| 2026-04-19 07:08 | 25.06568 | 121.54947 | 26 ft | 8 kts | 268° |
| 2026-04-19 07:08 | 25.06566 | 121.54891 | 26 ft | 3 kts | 268° |
| 2026-04-19 07:09 | 25.06565 | 121.54851 | 28 ft | 7 kts | 268° |
| 2026-04-19 07:09 | 25.06564 | 121.54797 | 26 ft | 8 kts | 269° |
| 2026-04-19 07:09 | 25.06574 | 121.54727 | 26 ft | 10 kts | 288° |
| 2026-04-19 07:09 | 25.06611 | 121.54656 | 28 ft | 12 kts | 304° |
| 2026-04-19 07:10 | 25.06656 | 121.54579 | 28 ft | 8 kts | 304° |
| 2026-04-19 07:10 | 25.06699 | 121.54523 | 26 ft | 11 kts | 311° |
| 2026-04-19 07:10 | 25.06747 | 121.54445 | 27 ft | 14 kts | 301° |
| 2026-04-19 07:10 | 25.06804 | 121.54342 | 27 ft | 17 kts | 302° |
| 2026-04-19 07:11 | 25.06855 | 121.54251 | 28 ft | 13 kts | 302° |
| 2026-04-19 07:11 | 25.06901 | 121.54156 | 28 ft | 15 kts | 288° |
| 2026-04-19 07:11 | 25.06913 | 121.54041 | 26 ft | 10 kts | 272° |
| 2026-04-19 07:11 | 25.06954 | 121.53982 | 27 ft | 11 kts | 354° |
| 2026-04-19 07:12 | 25.06998 | 121.54047 | 28 ft | 13 kts | 80° |
| 2026-04-19 07:12 | 25.06993 | 121.54241 | 26 ft | 56 kts | 92° |
| 2026-04-19 07:12 | 25.06966 | 121.54955 | 25 ft | 128 kts | 90° |
| 2026-04-19 07:12 | 25.06923 | 121.56152 | 154 ft | 173 kts | 94° |
| 2026-04-19 07:13 | 25.06869 | 121.57571 | 549 ft | 210 kts | 95° |
| 2026-04-19 07:13 | 25.06784 | 121.59295 | 937 ft | 248 kts | 96° |
| 2026-04-19 07:13 | 25.06684 | 121.61124 | 1222 ft | 230 kts | 96° |
| 2026-04-19 07:13 | 25.06595 | 121.62827 | 1287 ft | 217 kts | 96° |
| 2026-04-19 07:14 | 25.06495 | 121.64590 | 1534 ft | 245 kts | 96° |
| 2026-04-19 07:14 | 25.06186 | 121.66527 | 1414 ft | 260 kts | 120° |
| 2026-04-19 07:14 | 25.04901 | 121.67706 | 2110 ft | 240 kts | 170° |
| 2026-04-19 07:14 | 25.03267 | 121.67404 | 2630 ft | 248 kts | 216° |
| 2026-04-19 07:15 | 25.02226 | 121.65858 | 3048 ft | 258 kts | 250° |
| 2026-04-19 07:15 | 25.02008 | 121.63886 | 3514 ft | 262 kts | 265° |
| 2026-04-19 07:15 | 25.01532 | 121.59929 | 4376 ft | 264 kts | 255° |
| 2026-04-19 07:16 | 25.01061 | 121.57977 | 4796 ft | 264 kts | 251° |
| 2026-04-19 07:16 | 25.00479 | 121.56052 | 5222 ft | 263 kts | 248° |
| 2026-04-19 07:16 | 24.99827 | 121.54141 | 5623 ft | 267 kts | 247° |
| 2026-04-19 07:16 | 24.99158 | 121.52224 | 6034 ft | 269 kts | 246° |
| 2026-04-19 07:17 | 24.98390 | 121.50346 | 6453 ft | 268 kts | 239° |
| 2026-04-19 07:17 | 24.97511 | 121.48516 | 6826 ft | 272 kts | 238° |
| 2026-04-19 07:17 | 24.96642 | 121.46659 | 7198 ft | 273 kts | 239° |
| 2026-04-19 07:17 | 24.95782 | 121.44788 | 7588 ft | 274 kts | 239° |
| 2026-04-19 07:18 | 24.94933 | 121.42929 | 7972 ft | 276 kts | 239° |
| 2026-04-19 07:18 | 24.94063 | 121.41036 | 8358 ft | 278 kts | 239° |
| 2026-04-19 07:18 | 24.93189 | 121.39131 | 8752 ft | 279 kts | 239° |
| 2026-04-19 07:18 | 24.92280 | 121.37235 | 9152 ft | 281 kts | 236° |
| 2026-04-19 07:19 | 24.91300 | 121.35370 | 9553 ft | 282 kts | 235° |
| 2026-04-19 07:19 | 24.90297 | 121.33504 | 9928 ft | 284 kts | 235° |
| 2026-04-19 07:19 | 24.89287 | 121.31629 | 10302 ft | 286 kts | 235° |
| 2026-04-19 07:19 | 24.88274 | 121.29737 | 10701 ft | 287 kts | 235° |
| 2026-04-19 07:20 | 24.87247 | 121.27837 | 10958 ft | 291 kts | 234° |
| 2026-04-19 07:20 | 24.86183 | 121.25948 | 10995 ft | 290 kts | 234° |
| 2026-04-19 07:20 | 24.85137 | 121.24089 | 11026 ft | 289 kts | 234° |
| 2026-04-19 07:20 | 24.84078 | 121.22210 | 11048 ft | 289 kts | 234° |
| 2026-04-19 07:21 | 24.83015 | 121.20328 | 11054 ft | 290 kts | 234° |
| 2026-04-19 07:21 | 24.81951 | 121.18446 | 11040 ft | 289 kts | 234° |
| 2026-04-19 07:21 | 24.80889 | 121.16565 | 11043 ft | 289 kts | 234° |
| 2026-04-19 07:21 | 24.79837 | 121.14681 | 11069 ft | 289 kts | 234° |
| 2026-04-19 07:22 | 24.78777 | 121.12795 | 11064 ft | 290 kts | 234° |
| 2026-04-19 07:22 | 24.77716 | 121.10911 | 11041 ft | 289 kts | 234° |
| 2026-04-19 07:22 | 24.76669 | 121.09061 | 11041 ft | 289 kts | 234° |
| 2026-04-19 07:22 | 24.75606 | 121.07182 | 11054 ft | 290 kts | 234° |
| 2026-04-19 07:23 | 24.74543 | 121.05304 | 11047 ft | 289 kts | 234° |
| 2026-04-19 07:23 | 24.73476 | 121.03425 | 11051 ft | 289 kts | 234° |
| 2026-04-19 07:23 | 24.72412 | 121.01546 | 11044 ft | 289 kts | 234° |
| 2026-04-19 07:23 | 24.71347 | 120.99670 | 11062 ft | 289 kts | 234° |
| 2026-04-19 07:24 | 24.70280 | 120.97794 | 11045 ft | 289 kts | 234° |
| 2026-04-19 07:24 | 24.69212 | 120.95920 | 11037 ft | 289 kts | 234° |
| 2026-04-19 07:24 | 24.68147 | 120.94045 | 11046 ft | 289 kts | 234° |
| 2026-04-19 07:24 | 24.67081 | 120.92169 | 11060 ft | 289 kts | 234° |
| 2026-04-19 07:25 | 24.66029 | 120.90322 | 11040 ft | 290 kts | 234° |
| 2026-04-19 07:25 | 24.64958 | 120.88447 | 11031 ft | 289 kts | 234° |
| 2026-04-19 07:25 | 24.63892 | 120.86574 | 11035 ft | 289 kts | 234° |
| 2026-04-19 07:25 | 24.62814 | 120.84684 | 11058 ft | 300 kts | 233° |
| 2026-04-19 07:26 | 24.61658 | 120.82675 | 11078 ft | 317 kts | 234° |
| 2026-04-19 07:26 | 24.60496 | 120.80631 | 11062 ft | 314 kts | 234° |
| 2026-04-19 07:26 | 24.59343 | 120.78606 | 11042 ft | 312 kts | 234° |
| 2026-04-19 07:26 | 24.58186 | 120.76588 | 11056 ft | 312 kts | 232° |
| 2026-04-19 07:27 | 24.56693 | 120.74933 | 11136 ft | 311 kts | 213° |
| 2026-04-19 07:27 | 24.54907 | 120.73586 | 11108 ft | 311 kts | 210° |
| 2026-04-19 07:27 | 24.53083 | 120.72311 | 11077 ft | 311 kts | 209° |
| 2026-04-19 07:27 | 24.51272 | 120.71021 | 11041 ft | 311 kts | 213° |
| 2026-04-19 07:28 | 24.49550 | 120.69588 | 11039 ft | 310 kts | 214° |
| 2026-04-19 07:28 | 24.47836 | 120.68145 | 11032 ft | 311 kts | 214° |
| 2026-04-19 07:28 | 24.46134 | 120.66686 | 11033 ft | 311 kts | 214° |
| 2026-04-19 07:28 | 24.44430 | 120.65227 | 11043 ft | 311 kts | 214° |
| 2026-04-19 07:29 | 24.42725 | 120.63770 | 11045 ft | 311 kts | 214° |
| 2026-04-19 07:29 | 24.41045 | 120.62334 | 11044 ft | 311 kts | 214° |
| 2026-04-19 07:29 | 24.39340 | 120.60877 | 11043 ft | 311 kts | 214° |
| 2026-04-19 07:29 | 24.37635 | 120.59423 | 11060 ft | 311 kts | 214° |
| 2026-04-19 07:30 | 24.35927 | 120.57968 | 11040 ft | 311 kts | 214° |
| 2026-04-19 07:30 | 24.34217 | 120.56515 | 10975 ft | 312 kts | 214° |
| 2026-04-19 07:30 | 24.32510 | 120.55064 | 10560 ft | 307 kts | 214° |
| 2026-04-19 07:30 | 24.30841 | 120.53640 | 10145 ft | 301 kts | 214° |
| 2026-04-19 07:31 | 24.29205 | 120.52247 | 9752 ft | 296 kts | 214° |
| 2026-04-19 07:31 | 24.27591 | 120.50876 | 9353 ft | 291 kts | 214° |
| 2026-04-19 07:31 | 24.26025 | 120.49545 | 8970 ft | 287 kts | 214° |
| 2026-04-19 07:31 | 24.24452 | 120.48209 | 8587 ft | 285 kts | 214° |
| 2026-04-19 07:32 | 24.22898 | 120.46889 | 8216 ft | 280 kts | 214° |
| 2026-04-19 07:32 | 24.21390 | 120.45607 | 8079 ft | 269 kts | 214° |
| 2026-04-19 07:32 | 24.19905 | 120.44350 | 8039 ft | 271 kts | 214° |
| 2026-04-19 07:32 | 24.18401 | 120.43077 | 8051 ft | 275 kts | 214° |
| 2026-04-19 07:33 | 24.16889 | 120.41796 | 8053 ft | 275 kts | 214° |
| 2026-04-19 07:33 | 24.15376 | 120.40516 | 8042 ft | 275 kts | 214° |
| 2026-04-19 07:33 | 24.13866 | 120.39236 | 8044 ft | 274 kts | 214° |
| 2026-04-19 07:33 | 24.12360 | 120.37958 | 8063 ft | 274 kts | 214° |
| 2026-04-19 07:34 | 24.10871 | 120.36697 | 8051 ft | 275 kts | 214° |
| 2026-04-19 07:34 | 24.09358 | 120.35419 | 8032 ft | 274 kts | 214° |
| 2026-04-19 07:34 | 24.07850 | 120.34142 | 8033 ft | 274 kts | 214° |
| 2026-04-19 07:34 | 24.06342 | 120.32864 | 8052 ft | 274 kts | 214° |
| 2026-04-19 07:35 | 24.04833 | 120.31589 | 8050 ft | 275 kts | 214° |
| 2026-04-19 07:35 | 24.03319 | 120.30311 | 8033 ft | 274 kts | 214° |
| 2026-04-19 07:35 | 24.01810 | 120.29033 | 8040 ft | 274 kts | 214° |
| 2026-04-19 07:35 | 24.00303 | 120.27757 | 8064 ft | 274 kts | 214° |
| 2026-04-19 07:36 | 23.98792 | 120.26481 | 8052 ft | 275 kts | 214° |
| 2026-04-19 07:36 | 23.97298 | 120.25223 | 8033 ft | 274 kts | 214° |
| 2026-04-19 07:36 | 23.95785 | 120.23944 | 7914 ft | 276 kts | 214° |
| 2026-04-19 07:36 | 23.94273 | 120.22666 | 7716 ft | 273 kts | 218° |
| 2026-04-19 07:37 | 23.92803 | 120.21395 | 7525 ft | 265 kts | 217° |
| 2026-04-19 07:37 | 23.91365 | 120.20181 | 7298 ft | 258 kts | 217° |
| 2026-04-19 07:37 | 23.89961 | 120.19005 | 7071 ft | 251 kts | 217° |
| 2026-04-19 07:37 | 23.88590 | 120.17861 | 6854 ft | 245 kts | 217° |
| 2026-04-19 07:38 | 23.87273 | 120.16756 | 6635 ft | 239 kts | 217° |
| 2026-04-19 07:38 | 23.85967 | 120.15660 | 6409 ft | 234 kts | 217° |
| 2026-04-19 07:38 | 23.84684 | 120.14582 | 6189 ft | 232 kts | 217° |
| 2026-04-19 07:38 | 23.83414 | 120.13514 | 5997 ft | 228 kts | 217° |
| 2026-04-19 07:39 | 23.82171 | 120.12469 | 5793 ft | 222 kts | 217° |
| 2026-04-19 07:39 | 23.80954 | 120.11444 | 5565 ft | 220 kts | 217° |
| 2026-04-19 07:39 | 23.79745 | 120.10428 | 5344 ft | 219 kts | 217° |
| 2026-04-19 07:39 | 23.78543 | 120.09417 | 5200 ft | 217 kts | 217° |
| 2026-04-19 07:40 | 23.77342 | 120.08409 | 5141 ft | 222 kts | 217° |
| 2026-04-19 07:40 | 23.76093 | 120.07355 | 5111 ft | 230 kts | 217° |
| 2026-04-19 07:40 | 23.74838 | 120.06301 | 5095 ft | 230 kts | 217° |
| 2026-04-19 07:40 | 23.73572 | 120.05237 | 5103 ft | 230 kts | 217° |
| 2026-04-19 07:41 | 23.72305 | 120.04172 | 5097 ft | 228 kts | 217° |
| 2026-04-19 07:41 | 23.71041 | 120.03101 | 5078 ft | 231 kts | 216° |
| 2026-04-19 07:41 | 23.69769 | 120.02047 | 5067 ft | 230 kts | 217° |
| 2026-04-19 07:41 | 23.68497 | 120.00974 | 4928 ft | 232 kts | 217° |
| 2026-04-19 07:42 | 23.67233 | 119.99911 | 4675 ft | 228 kts | 216° |
| 2026-04-19 07:42 | 23.65972 | 119.98861 | 4407 ft | 230 kts | 217° |
| 2026-04-19 07:42 | 23.64734 | 119.97811 | 4154 ft | 228 kts | 217° |
| 2026-04-19 07:42 | 23.63487 | 119.96762 | 3903 ft | 226 kts | 217° |
| 2026-04-19 07:43 | 23.62244 | 119.95720 | 3639 ft | 225 kts | 217° |
| 2026-04-19 07:43 | 23.61008 | 119.94682 | 3390 ft | 224 kts | 217° |
| 2026-04-19 07:43 | 23.59778 | 119.93650 | 3137 ft | 223 kts | 217° |
| 2026-04-19 07:43 | 23.58551 | 119.92626 | 2902 ft | 221 kts | 216° |
| 2026-04-19 07:44 | 23.57263 | 119.91731 | 2687 ft | 219 kts | 199° |
| 2026-04-19 07:44 | 23.55800 | 119.91272 | 2623 ft | 220 kts | 195° |
| 2026-04-19 07:44 | 23.54323 | 119.90931 | 2584 ft | 221 kts | 182° |
| 2026-04-19 07:44 | 23.52802 | 119.91181 | 2580 ft | 222 kts | 175° |
| 2026-04-19 07:45 | 23.51328 | 119.90844 | 2578 ft | 221 kts | 214° |
| 2026-04-19 07:45 | 23.50382 | 119.89545 | 2611 ft | 224 kts | 245° |
| 2026-04-19 07:45 | 23.49783 | 119.87971 | 2621 ft | 225 kts | 244° |
| 2026-04-19 07:45 | 23.49101 | 119.86447 | 2627 ft | 224 kts | 238° |
| 2026-04-19 07:46 | 23.48281 | 119.85013 | 2617 ft | 222 kts | 233° |
| 2026-04-19 07:46 | 23.47274 | 119.83741 | 2588 ft | 222 kts | 225° |
| 2026-04-19 07:46 | 23.46222 | 119.82540 | 2570 ft | 222 kts | 225° |
| 2026-04-19 07:46 | 23.45184 | 119.81298 | 2569 ft | 222 kts | 227° |
| 2026-04-19 07:47 | 23.44171 | 119.80030 | 2578 ft | 222 kts | 227° |
| 2026-04-19 07:47 | 23.43155 | 119.78764 | 2583 ft | 222 kts | 227° |
| 2026-04-19 07:47 | 23.42182 | 119.77459 | 2573 ft | 223 kts | 232° |
| 2026-04-19 07:47 | 23.41314 | 119.76063 | 2579 ft | 222 kts | 236° |
| 2026-04-19 07:48 | 23.40569 | 119.74583 | 2587 ft | 224 kts | 242° |
| 2026-04-19 07:48 | 23.39903 | 119.73051 | 2572 ft | 224 kts | 243° |
| 2026-04-19 07:48 | 23.39326 | 119.71501 | 2570 ft | 225 kts | 249° |
| 2026-04-19 07:48 | 23.38849 | 119.69880 | 2579 ft | 225 kts | 253° |
| 2026-04-19 07:49 | 23.38524 | 119.68208 | 2568 ft | 227 kts | 257° |
| 2026-04-19 07:49 | 23.38260 | 119.66513 | 2465 ft | 227 kts | 259° |
| 2026-04-19 07:49 | 23.38067 | 119.64808 | 2333 ft | 227 kts | 262° |
| 2026-04-19 07:49 | 23.37996 | 119.63099 | 2210 ft | 226 kts | 268° |
| 2026-04-19 07:50 | 23.38194 | 119.61429 | 2057 ft | 223 kts | 292° |
| 2026-04-19 07:50 | 23.39200 | 119.60204 | 1928 ft | 218 kts | 329° |
| 2026-04-19 07:50 | 23.40575 | 119.59589 | 1921 ft | 213 kts | 341° |
| 2026-04-19 07:50 | 23.42013 | 119.59201 | 1903 ft | 218 kts | 346° |
| 2026-04-19 07:51 | 23.43483 | 119.58872 | 1860 ft | 208 kts | 347° |
| 2026-04-19 07:51 | 23.44858 | 119.58637 | 1786 ft | 196 kts | 358° |
| 2026-04-19 07:51 | 23.46137 | 119.58992 | 1743 ft | 183 kts | 20° |
| 2026-04-19 07:51 | 23.47322 | 119.59440 | 1775 ft | 176 kts | 19° |
| 2026-04-19 07:52 | 23.48416 | 119.59838 | 1798 ft | 161 kts | 18° |
| 2026-04-19 07:52 | 23.49487 | 119.60215 | 1794 ft | 162 kts | 18° |
| 2026-04-19 07:52 | 23.50561 | 119.60582 | 1621 ft | 166 kts | 17° |
| 2026-04-19 07:52 | 23.51666 | 119.60963 | 1104 ft | 166 kts | 18° |
| 2026-04-19 07:53 | 23.52742 | 119.61350 | 725 ft | 159 kts | 18° |
| 2026-04-19 07:53 | 23.53757 | 119.61712 | 546 ft | 154 kts | 18° |
| 2026-04-19 07:53 | 23.54762 | 119.62065 | 295 ft | 149 kts | 17° |
| 2026-04-19 07:53 | 23.55720 | 119.62420 | 113 ft | 136 kts | 17° |
| 2026-04-19 07:54 | 23.56441 | 119.62676 | 102 ft | 63 kts | 20° |
| 2026-04-19 07:54 | 23.56842 | 119.62819 | 98 ft | 58 kts | 18° |
| 2026-04-19 07:54 | 23.57198 | 119.62944 | 90 ft | 42 kts | 18° |
| 2026-04-19 07:54 | 23.57258 | 119.63092 | 86 ft | 22 kts | 109° |
| 2026-04-19 07:55 | 23.57168 | 119.63176 | 90 ft | 18 kts | 188° |
| 2026-04-19 07:55 | 23.57061 | 119.63142 | 92 ft | 15 kts | 198° |
| 2026-04-19 07:55 | 23.56973 | 119.63111 | 94 ft | 12 kts | 198° |
| 2026-04-19 07:55 | 23.56896 | 119.63084 | 95 ft | 11 kts | 198° |
| 2026-04-19 07:56 | 23.56824 | 119.63059 | 98 ft | 11 kts | 198° |
| 2026-04-19 07:56 | 23.56754 | 119.63034 | 98 ft | 11 kts | 198° |
| 2026-04-19 07:56 | 23.56676 | 119.63006 | 97 ft | 13 kts | 198° |
| 2026-04-19 07:56 | 23.56581 | 119.62972 | 98 ft | 16 kts | 198° |
| 2026-04-19 07:57 | 23.56471 | 119.62932 | 99 ft | 18 kts | 198° |
| 2026-04-19 07:57 | 23.56346 | 119.62887 | 99 ft | 20 kts | 198° |
| 2026-04-19 07:57 | 23.56222 | 119.62843 | 98 ft | 9 kts | 198° |
| 2026-04-19 07:57 | 23.56161 | 119.62824 | 98 ft | 5 kts | 185° |
| 2026-04-19 07:58 | 23.56129 | 119.62843 | 97 ft | 5 kts | 118° |
| 2026-04-19 07:58 | 23.56126 | 119.62856 | 99 ft | 3 kts | 107° |
| 2026-04-19 07:58 | 23.56118 | 119.62880 | 99 ft | 0 kts | 108° |
| 2026-04-19 07:58 | 23.56114 | 119.62894 | 98 ft | 0 kts | 108° |
| 2026-04-19 07:59 | 23.56113 | 119.62897 | 98 ft | 0 kts | 108° |